Skip Navigation LinksHome page > Weather > Current weather Skip Navigation Links

Current Weather

San Francisco International, San Francisco

For information only: do not use for flight planning or navigation.
Latest weather
Observation time Monday, June 21, 2021 5:56 PM PDT
Local time Monday, June 21, 2021 6:54 PM PDT
Flight conditions Visual Meteorological Conditions
Winds
Wind direction variable
Wind speed 5 mph
Visibility 10 mi.
Sky condition
Ceiling unlimited
Cloud layer few clouds 1,200 ft.
Cloud layer few clouds 2,800 ft.
Temperature 74°F
Dewpoint 53°F
Altimeter 29.90 in.Hg
Derived measurements
Relative humidity 48%
Density altitude 1196 ft.
Sea-level pressure 29.90 in.Hg
Remarks
Automated weather observing station with precipitation discriminator.
METAR KSFO 220056Z VRB04KT 10SM FEW012 FEW028 23/12 A2990 RMK AO2 SLP126 T02330117

Settings

Location code

InnerDrive.Weather 4.0.6770.0 Release CLR 4.0.30319.42000
Copyright ©2018 Inner Drive Technology. All rights reserved. Portions Copyright ©1986-2018 David Braverman.

Find weather

Site navigation


Skip Navigation Links

Place info

Page info

PayPal - The safer, easier way to pay online!

Return home.

Copyright ©2021 Inner Drive Technology. Purveyors of fine, hand-crafted computer software. Page printed 2021-06-22T01:54:50 UTC.